Time;durP1;ratioP1;P1;durP2;ratioP2;P2;SDS_P1;SDS_P2;PMS_P1;PMS_P2;Temp;Humidity;BMP_temperature;BMP_pressure;BME280_temperature;BME280_humidity;BME280_pressure;Samples;Min_cycle;Max_cycle;Signal;HPM_P1;HPM_P2
2022/10/01 00:01:17;;;;;;;15.95;10.48;;;;;;;12.57;100.00;98639.13;4423495;32;20114;-76
2022/10/01 00:03:46;;;;;;;16.25;10.40;;;;;;;12.50;100.00;98715.09;4423496;32;20094;-76
2022/10/01 00:06:17;;;;;;;14.00;9.55;;;;;;;12.48;100.00;98677.63;4423661;32;20089;-76
2022/10/01 00:08:47;;;;;;;16.85;10.55;;;;;;;12.57;100.00;98605.78;4423252;32;20527;-76
2022/10/01 00:11:22;;;;;;;16.58;10.82;;;;;;;12.67;100.00;98575.94;4423771;32;20436;-76
2022/10/01 00:13:49;;;;;;;17.98;10.13;;;;;;;12.66;100.00;98577.75;4423243;32;20089;-76
2022/10/01 00:16:25;;;;;;;15.10;10.02;;;;;;;12.66;100.00;98590.06;4423146;32;20216;-76
2022/10/01 00:18:52;;;;;;;18.92;10.38;;;;;;;12.69;100.00;98589.75;4423058;32;20135;-76
2022/10/01 00:21:26;;;;;;;16.05;10.65;;;;;;;12.69;100.00;98595.84;4423380;32;20442;-75
2022/10/01 00:23:57;;;;;;;23.67;11.02;;;;;;;12.68;100.00;98596.00;4423321;32;20105;-76
2022/10/01 00:26:28;;;;;;;16.35;10.05;;;;;;;12.70;100.00;98594.88;4423271;32;20188;-76
2022/10/01 00:28:58;;;;;;;14.27;9.82;;;;;;;12.67;100.00;98599.59;4423131;32;20070;-76
2022/10/01 00:31:26;;;;;;;12.57;9.00;;;;;;;12.65;100.00;98598.94;4423160;32;20153;-76
2022/10/01 00:33:54;;;;;;;16.10;10.15;;;;;;;12.60;100.00;98594.94;4423199;32;20499;-76
2022/10/01 00:36:21;;;;;;;17.40;10.93;;;;;;;12.56;100.00;98593.59;4423230;32;20116;-76
2022/10/01 00:38:48;;;;;;;16.58;10.50;;;;;;;12.52;100.00;98592.28;4423246;32;20420;-76
2022/10/01 00:41:17;;;;;;;15.50;9.88;;;;;;;12.53;100.00;98587.84;4422158;32;20162;-76
2022/10/01 00:43:47;;;;;;;12.50;8.13;;;;;;;12.50;100.00;98599.47;4423053;32;20142;-77
2022/10/01 00:46:24;;;;;;;13.45;7.47;;;;;;;12.61;100.00;98587.88;4423131;32;20105;-76
2022/10/01 00:48:57;;;;;;;11.57;7.62;;;;;;;12.69;100.00;98593.19;4423358;32;20521;-77
2022/10/01 00:51:28;;;;;;;11.07;6.97;;;;;;;12.67;100.00;98594.31;4423611;32;20612;-76
2022/10/01 00:54:05;;;;;;;8.98;6.87;;;;;;;12.73;100.00;98586.66;4423104;32;20502;-76
2022/10/01 00:56:33;;;;;;;10.73;7.25;;;;;;;12.78;100.00;98581.75;4423157;32;20128;-76
2022/10/01 00:59:00;;;;;;;14.32;8.13;;;;;;;12.80;100.00;98578.97;4409473;32;20074;-76
2022/10/01 01:01:27;;;;;;;10.70;7.68;;;;;;;12.73;100.00;98570.91;4409157;32;20110;-76
2022/10/01 01:03:55;;;;;;;15.70;8.07;;;;;;;12.72;100.00;98578.94;4422972;32;20157;-76
2022/10/01 01:06:22;;;;;;;10.73;7.55;;;;;;;12.76;100.00;98588.97;4409168;32;20585;-77
2022/10/01 01:08:53;;;;;;;13.45;8.60;;;;;;;12.78;100.00;98581.75;4422890;32;20597;-77
2022/10/01 01:11:36;;;;;;;11.80;7.78;;;;;;;12.76;100.00;98588.97;4423082;32;20098;-76
2022/10/01 01:14:12;;;;;;;13.38;8.70;;;;;;;12.76;100.00;98594.25;4423165;32;20109;-77
2022/10/01 01:16:48;;;;;;;11.20;7.85;;;;;;;12.68;100.00;98590.72;4422826;32;20097;-76
2022/10/01 01:19:49;;;;;;;14.15;8.65;;;;;;;12.64;100.00;98592.00;4421621;32;20121;-77
2022/10/01 01:22:19;;;;;;;14.98;9.07;;;;;;;12.58;100.00;98594.28;4423092;32;20140;-76
2022/10/01 01:24:50;;;;;;;12.27;8.27;;;;;;;12.59;100.00;98590.66;4423172;32;20173;-77
2022/10/01 01:27:32;;;;;;;14.25;9.65;;;;;;;12.53;100.00;98593.91;4422782;32;20117;-76
2022/10/01 01:30:09;;;;;;;15.02;9.13;;;;;;;12.57;100.00;98589.19;4422705;32;20391;-76
2022/10/01 01:33:01;;;;;;;14.90;9.05;;;;;;;12.59;100.00;98585.41;4409034;32;20106;-76
2022/10/01 01:35:46;;;;;;;14.13;9.18;;;;;;;12.65;100.00;98589.22;4422679;32;20119;-76
2022/10/01 01:38:17;;;;;;;16.45;10.05;;;;;;;12.63;100.00;98582.47;4422688;32;20108;-77
2022/10/01 01:40:50;;;;;;;16.25;10.85;;;;;;;12.55;100.00;98586.72;4408645;32;20137;-76
2022/10/01 01:43:21;;;;;;;15.20;9.73;;;;;;;12.52;100.00;98591.44;4422480;32;20090;-76
2022/10/01 01:45:50;;;;;;;14.02;9.63;;;;;;;12.52;100.00;98584.41;4408484;32;20127;-76
2022/10/01 01:48:17;;;;;;;16.92;11.32;;;;;;;12.63;100.00;98572.81;4408855;32;20098;-76
2022/10/01 01:51:04;;;;;;;19.83;10.75;;;;;;;12.62;100.00;98567.69;4422329;32;20102;-76
2022/10/01 01:53:31;;;;;;;18.17;11.90;;;;;;;12.60;100.00;98568.66;4408741;32;20525;-76
2022/10/01 01:55:59;;;;;;;19.92;12.30;;;;;;;12.56;100.00;98553.37;4422410;32;20467;-76
2022/10/01 01:58:27;;;;;;;19.98;12.70;;;;;;;12.53;100.00;98549.25;4422668;32;20098;-76
2022/10/01 02:00:54;;;;;;;19.90;12.07;;;;;;;12.57;100.00;98561.09;4422297;32;20545;-76
2022/10/01 02:03:24;;;;;;;21.42;12.73;;;;;;;12.50;100.00;98557.44;4422707;32;20121;-76
2022/10/01 02:06:03;;;;;;;17.40;12.37;;;;;;;12.55;100.00;98549.09;4408445;32;20109;-76
2022/10/01 02:08:42;;;;;;;19.75;12.02;;;;;;;12.55;100.00;98538.56;4422309;32;20106;-76
2022/10/01 02:11:35;;;;;;;19.73;12.77;;;;;;;12.47;100.00;98531.47;4422238;32;20082;-76
2022/10/01 02:14:27;;;;;;;21.93;13.33;;;;;;;12.49;100.00;98536.56;4420969;32;20129;-76
2022/10/01 02:17:02;;;;;;;19.92;12.07;;;;;;;12.44;100.00;98552.78;4421956;32;20121;-76
2022/10/01 02:19:57;;;;;;;19.15;11.98;;;;;;;12.43;100.00;98567.75;4420864;32;20098;-76
2022/10/01 02:22:41;;;;;;;21.95;13.35;;;;;;;12.40;100.00;98573.31;4422134;32;20156;-76
2022/10/01 02:25:08;;;;;;;;;;;;;;;12.39;100.00;98560.31;4421541;32;20098;-76
2022/10/01 02:27:39;;;;;;;22.85;11.12;;;;;;;12.42;100.00;98555.56;4406758;32;20076;-76
2022/10/01 02:30:08;;;;;;;16.83;10.93;;;;;;;12.43;100.00;98551.97;4406718;32;20620;-76
2022/10/01 02:32:38;;;;;;;20.60;10.98;;;;;;;12.47;100.00;98557.75;4405425;32;20102;-76
2022/10/01 02:35:06;;;;;;;22.05;11.73;;;;;;;12.48;100.00;98569.91;4406747;32;20094;-76
2022/10/01 02:37:35;;;;;;;23.52;12.88;;;;;;;12.48;100.00;98567.28;4406657;32;20129;-76
2022/10/01 02:40:05;;;;;;;19.37;12.35;;;;;;;12.50;100.00;98567.94;4405239;32;20091;-76
2022/10/01 02:42:35;;;;;;;19.62;12.63;;;;;;;12.47;100.00;98570.88;4406556;32;20142;-76
2022/10/01 02:45:03;;;;;;;21.15;13.25;;;;;;;12.43;100.00;98559.06;4405115;32;20094;-76
2022/10/01 02:47:42;;;;;;;23.35;14.70;;;;;;;12.46;100.00;98571.03;4405527;32;20165;-76
2022/10/01 02:50:10;;;;;;;22.30;14.15;;;;;;;12.49;100.00;98571.56;4405452;32;20125;-76
2022/10/01 02:52:39;;;;;;;21.73;12.80;;;;;;;12.51;100.00;98568.78;4405107;32;20170;-76
2022/10/01 02:55:13;;;;;;;22.98;14.10;;;;;;;12.51;100.00;98580.09;4406410;32;20152;-77
2022/10/01 02:57:41;;;;;;;22.35;14.25;;;;;;;12.52;100.00;98581.78;4405345;32;20185;-76
2022/10/01 03:00:14;;;;;;;21.23;13.85;;;;;;;12.51;100.00;98580.09;4406358;32;20165;-76
2022/10/01 03:02:41;;;;;;;25.58;14.50;;;;;;;12.44;100.00;98579.06;4406352;32;20110;-77
2022/10/01 03:05:08;;;;;;;25.35;14.07;;;;;;;12.48;100.00;98575.16;4408411;32;20098;-76
2022/10/01 03:07:36;;;;;;;23.85;14.10;;;;;;;12.43;100.00;98572.19;4417083;32;20120;-76
2022/10/01 03:10:04;;;;;;;22.23;14.55;;;;;;;12.48;100.00;98572.53;4423483;32;20593;-76
2022/10/01 03:12:32;;;;;;;21.77;14.02;;;;;;;12.47;100.00;98557.75;4423706;32;20556;-76
2022/10/01 03:14:59;;;;;;;20.83;13.15;;;;;;;12.48;100.00;98556.78;4423521;32;20098;-76
2022/10/01 03:17:26;;;;;;;21.62;14.02;;;;;;;12.54;100.00;98571.91;4423693;32;20178;-76
2022/10/01 03:19:53;;;;;;;18.35;12.65;;;;;;;12.52;100.00;98566.00;4423698;32;20090;-76
2022/10/01 03:22:21;;;;;;;23.65;13.13;;;;;;;12.56;100.00;98564.69;4423664;32;20188;-76
2022/10/01 03:24:49;;;;;;;20.08;12.57;;;;;;;12.59;100.00;98587.22;4423769;32;20117;-75
2022/10/01 03:27:18;;;;;;;21.05;12.23;;;;;;;12.58;100.00;98603.94;4423588;32;20586;-76
2022/10/01 03:29:45;;;;;;;20.15;11.27;;;;;;;12.62;100.00;98628.97;4423891;32;20097;-76
2022/10/01 03:32:13;;;;;;;14.15;9.38;;;;;;;12.65;100.00;98612.88;4423469;32;20440;-76
2022/10/01 03:34:40;;;;;;;17.42;9.77;;;;;;;12.66;100.00;98629.50;4423634;32;20189;-76
2022/10/01 03:37:07;;;;;;;15.20;10.32;;;;;;;12.67;100.00;98626.72;4423861;32;20831;-76
2022/10/01 03:39:35;;;;;;;15.75;9.57;;;;;;;12.79;100.00;98624.62;4409606;32;20093;-76
2022/10/01 03:42:04;;;;;;;16.10;8.57;;;;;;;12.80;100.00;98605.25;4423519;32;20125;-76
2022/10/01 03:44:32;;;;;;;13.52;9.15;;;;;;;12.87;100.00;98610.69;4423537;32;20097;-76
2022/10/01 03:46:59;;;;;;;13.90;8.02;;;;;;;12.90;100.00;98599.88;4423597;32;20117;-76
2022/10/01 03:49:26;;;;;;;12.88;8.73;;;;;;;12.93;100.00;98600.41;4423624;32;20469;-76
2022/10/01 03:51:54;;;;;;;12.30;8.00;;;;;;;12.95;100.00;98603.69;4423530;32;20180;-76
2022/10/01 03:54:21;;;;;;;12.95;8.80;;;;;;;13.01;100.00;98598.81;4423552;32;20125;-76
2022/10/01 03:56:48;;;;;;;11.30;8.27;;;;;;;12.95;100.00;98593.19;4423335;32;20520;-76
2022/10/01 03:59:15;;;;;;;15.05;8.18;;;;;;;12.90;100.00;98590.19;4423569;32;20440;-76
2022/10/01 04:01:43;;;;;;;12.80;8.38;;;;;;;12.94;100.00;98574.94;4423202;32;20120;-76
2022/10/01 04:04:10;;;;;;;11.35;7.62;;;;;;;12.94;100.00;98574.94;4423506;32;20121;-76
2022/10/01 04:06:37;;;;;;;11.63;8.13;;;;;;;12.86;100.00;98578.34;4423296;32;20176;-76
2022/10/01 04:09:04;;;;;;;13.13;8.38;;;;;;;12.89;100.00;98566.69;4423329;32;20602;-76
2022/10/01 04:11:31;;;;;;;12.52;8.20;;;;;;;12.95;100.00;98566.88;4423270;32;20121;-76
2022/10/01 04:13:59;;;;;;;12.45;8.18;;;;;;;12.96;100.00;98572.97;4423102;32;20136;-76
2022/10/01 04:16:26;;;;;;;10.40;6.78;;;;;;;13.01;100.00;98565.44;4422477;32;20098;-76
2022/10/01 04:18:53;;;;;;;10.13;6.87;;;;;;;12.97;100.00;98571.97;4422099;32;20086;-76
2022/10/01 04:21:20;;;;;;;13.13;7.55;;;;;;;12.99;100.00;98561.31;4423330;32;20094;-75
2022/10/01 04:23:49;;;;;;;12.35;7.00;;;;;;;12.92;100.00;98564.56;4423273;32;20169;-75
2022/10/01 04:26:17;;;;;;;12.32;7.47;;;;;;;12.87;100.00;98560.75;4423235;32;20160;-76
2022/10/01 04:28:45;;;;;;;12.73;7.28;;;;;;;12.88;100.00;98565.84;4423283;32;20125;-76
2022/10/01 04:31:25;;;;;;;10.57;7.78;;;;;;;12.90;100.00;98569.16;4422907;32;20173;-76
2022/10/01 04:33:55;;;;;;;10.07;6.85;;;;;;;12.88;100.00;98575.56;4423356;32;20105;-76
2022/10/01 04:36:23;;;;;;;11.15;7.05;;;;;;;12.90;100.00;98563.06;4423421;32;20089;-75
2022/10/01 04:38:54;;;;;;;12.30;7.87;;;;;;;12.90;100.00;98569.16;4423347;32;20554;-76
2022/10/01 04:41:29;;;;;;;9.65;7.20;;;;;;;12.94;100.00;98570.50;4423118;32;20196;-75
2022/10/01 04:43:58;;;;;;;10.63;6.32;;;;;;;12.92;100.00;98569.81;4423088;32;20124;-76
2022/10/01 04:46:28;;;;;;;11.90;7.25;;;;;;;12.98;100.00;98576.28;4423075;32;20097;-76
2022/10/01 04:48:56;;;;;;;12.48;7.60;;;;;;;12.94;100.00;98573.13;4423221;32;20428;-76
2022/10/01 04:51:23;;;;;;;12.02;7.07;;;;;;;12.97;100.00;98561.47;4423048;32;20136;-76
2022/10/01 04:53:50;;;;;;;11.40;7.30;;;;;;;12.97;100.00;98564.09;4423007;32;20123;-76
2022/10/01 04:56:17;;;;;;;13.85;7.50;;;;;;;12.93;100.00;98568.84;4423053;32;20172;-76
2022/10/01 04:58:44;;;;;;;15.45;6.93;;;;;;;12.94;100.00;98578.41;4423019;32;20176;-76
2022/10/01 05:01:11;;;;;;;14.25;8.68;;;;;;;12.96;100.00;98581.69;4423053;32;20085;-76
2022/10/01 05:03:40;;;;;;;11.55;6.75;;;;;;;12.98;100.00;98588.59;4422939;32;20094;-76
2022/10/01 05:06:07;;;;;;;7.75;5.97;;;;;;;13.03;100.00;98596.84;4423009;32;20223;-76
2022/10/01 05:08:34;;;;;;;10.30;6.47;;;;;;;13.09;100.00;98615.44;4423155;32;20098;-76
2022/10/01 05:11:01;;;;;;;11.82;7.90;;;;;;;13.10;100.00;98629.41;4422776;32;20120;-76
2022/10/01 05:13:30;;;;;;;10.25;6.70;;;;;;;13.01;100.00;98622.47;4422654;32;20098;-76
2022/10/01 05:15:58;;;;;;;11.75;7.70;;;;;;;13.09;100.00;98619.88;4422944;32;20093;-76
2022/10/01 05:18:25;;;;;;;11.35;7.87;;;;;;;13.07;100.00;98633.19;4422842;32;20136;-76
2022/10/01 05:20:52;;;;;;;10.93;6.62;;;;;;;13.08;100.00;98640.09;4423108;32;20102;-76
2022/10/01 05:23:19;;;;;;;15.35;7.22;;;;;;;13.02;100.00;98611.81;4422768;32;20094;-76
2022/10/01 05:25:46;;;;;;;11.57;7.55;;;;;;;13.06;100.00;98607.03;4422280;32;20827;-76
2022/10/01 05:28:14;;;;;;;17.52;9.23;;;;;;;13.05;100.00;98608.00;4422959;32;20094;-76
2022/10/01 05:30:49;;;;;;;12.82;8.20;;;;;;;13.03;100.00;98596.84;4422692;32;20110;-75
2022/10/01 05:33:16;;;;;;;13.00;8.55;;;;;;;13.04;100.00;98594.03;4422575;32;20102;-76
2022/10/01 05:35:43;;;;;;;13.10;8.93;;;;;;;13.02;100.00;98600.44;4422736;32;20085;-76
2022/10/01 05:38:11;;;;;;;12.43;7.90;;;;;;;13.00;100.00;98597.97;4422644;32;20149;-75
2022/10/01 05:40:38;;;;;;;14.15;8.95;;;;;;;12.98;100.00;98614.91;4422635;32;20108;-76
2022/10/01 05:43:05;;;;;;;15.52;8.88;;;;;;;13.00;100.00;98612.94;4422410;32;20666;-76
2022/10/01 05:45:32;;;;;;;17.23;9.15;;;;;;;13.02;100.00;98622.31;4422593;32;20158;-76
2022/10/01 05:48:01;;;;;;;14.77;9.40;;;;;;;12.99;100.00;98630.53;4422625;32;20146;-76
2022/10/01 05:50:32;;;;;;;15.32;8.93;;;;;;;13.02;100.00;98626.72;4422534;32;20089;-76
2022/10/01 05:53:01;;;;;;;18.95;9.27;;;;;;;12.97;100.00;98611.44;4422455;32;20201;-76
2022/10/01 05:55:33;;;;;;;15.80;9.52;;;;;;;12.93;100.00;98595.16;4422625;32;20636;-76
2022/10/01 05:58:06;;;;;;;15.10;8.88;;;;;;;12.93;100.00;98582.00;4422526;32;20078;-76
2022/10/01 06:00:33;;;;;;;17.50;9.40;;;;;;;12.93;100.00;98583.81;4422552;32;20127;-76
2022/10/01 06:03:02;;;;;;;16.10;9.75;;;;;;;12.99;100.00;98580.56;4422323;32;20541;-75
2022/10/01 06:05:31;;;;;;;16.50;10.15;;;;;;;13.03;100.00;98578.44;4422404;32;20154;-76
2022/10/01 06:07:58;;;;;;;15.07;9.98;;;;;;;13.08;100.00;98576.13;4422211;32;20432;-76
2022/10/01 06:10:29;;;;;;;19.87;10.85;;;;;;;13.13;100.00;98563.34;4421091;32;20124;-76
2022/10/01 06:13:00;;;;;;;18.70;9.60;;;;;;;13.13;100.00;98552.84;4422188;32;20090;-75
2022/10/01 06:15:28;;;;;;;20.73;10.88;;;;;;;13.20;100.00;98553.84;4422149;32;20200;-75
2022/10/01 06:17:55;;;;;;;16.50;9.73;;;;;;;13.13;100.00;98553.66;4422261;32;20094;-75
2022/10/01 06:20:22;;;;;;;19.48;10.20;;;;;;;13.10;100.00;98548.69;4422016;32;20163;-76
2022/10/01 06:22:55;;;;;;;18.77;10.13;;;;;;;13.16;100.00;98560.41;4422140;32;20174;-76
2022/10/01 06:25:22;;;;;;;15.75;9.05;;;;;;;13.27;100.00;98573.25;4422117;32;20509;-76
2022/10/01 06:27:56;;;;;;;15.88;10.35;;;;;;;13.30;100.00;98586.09;4406643;32;20212;-75
2022/10/01 06:30:28;;;;;;;18.65;10.95;;;;;;;13.38;100.00;98593.22;4406597;32;20503;-76
2022/10/01 06:33:02;;;;;;;18.80;10.77;;;;;;;13.48;100.00;98599.19;4406937;32;20113;-76
2022/10/01 06:35:33;;;;;;;17.17;11.00;;;;;;;13.48;100.00;98593.09;4406667;32;20108;-76
2022/10/01 06:38:01;;;;;;;18.55;10.65;;;;;;;13.52;100.00;98593.59;4406879;32;20174;-75
2022/10/01 06:40:29;;;;;;;16.40;10.52;;;;;;;13.59;100.00;98586.72;4408487;32;20559;-76
2022/10/01 06:42:58;;;;;;;14.25;9.60;;;;;;;13.64;100.00;98592.31;4394951;32;20185;-76
2022/10/01 06:45:27;;;;;;;14.18;10.35;;;;;;;13.57;100.00;98594.75;4408752;32;20098;-75
2022/10/01 06:47:56;;;;;;;15.15;9.98;;;;;;;13.62;100.00;98602.19;4408676;32;20112;-75
2022/10/01 06:50:24;;;;;;;16.48;10.75;;;;;;;13.54;100.00;98602.97;4408474;32;20099;-76
2022/10/01 06:52:51;;;;;;;16.58;10.57;;;;;;;13.57;100.00;98602.66;4408632;32;20128;-76
2022/10/01 06:55:27;;;;;;;16.05;10.15;;;;;;;13.53;100.00;98606.59;4408446;32;20090;-75
2022/10/01 06:57:57;;;;;;;17.75;10.48;;;;;;;13.56;100.00;98601.00;4408687;32;20161;-76
2022/10/01 07:00:26;;;;;;;17.75;11.70;;;;;;;13.57;100.00;98589.50;4408408;32;20133;-76
2022/10/01 07:02:54;;;;;;;23.02;12.40;;;;;;;13.60;100.00;98591.81;4408505;32;20137;-76
2022/10/01 07:05:22;;;;;;;20.77;12.20;;;;;;;13.66;100.00;98580.63;4408337;32;20126;-76
2022/10/01 07:07:50;;;;;;;19.33;12.15;;;;;;;13.52;100.00;98585.69;4418644;32;20105;-76
2022/10/01 07:10:20;;;;;;;27.40;12.35;;;;;;;13.58;100.00;98577.16;4423661;32;20089;-76
2022/10/01 07:12:48;;;;;;;25.62;12.88;;;;;;;13.53;100.00;98567.09;4423857;32;20102;-76
2022/10/01 07:15:17;;;;;;;39.38;14.85;;;;;;;13.55;100.00;98561.69;4423830;32;20123;-76
2022/10/01 07:17:48;;;;;;;38.95;14.70;;;;;;;13.45;100.00;98561.84;4423762;32;20098;-76
2022/10/01 07:20:17;;;;;;;48.47;15.48;;;;;;;13.46;100.00;98564.31;4422329;32;20486;-76
2022/10/01 07:22:45;;;;;;;36.80;15.25;;;;;;;13.50;100.00;98570.06;4423683;32;20193;-76
2022/10/01 07:25:13;;;;;;;54.63;16.17;;;;;;;13.47;100.00;98570.38;4423557;32;20168;-75
2022/10/01 07:27:40;;;;;;;32.00;14.70;;;;;;;13.55;100.00;98572.22;4423691;32;20137;-75
2022/10/01 07:30:07;;;;;;;51.60;16.80;;;;;;;13.68;100.00;98563.88;4423560;32;20112;-76
2022/10/01 07:32:35;;;;;;;64.82;15.00;;;;;;;13.73;100.00;98554.50;4423603;32;20443;-75
2022/10/01 07:35:04;;;;;;;33.65;13.80;;;;;;;13.83;100.00;98555.16;4409707;32;20480;-76
2022/10/01 07:37:30;;;;;;;27.75;12.68;;;;;;;13.86;100.00;98556.62;4423572;32;20093;-76
2022/10/01 07:39:57;;;;;;;26.75;13.50;;;;;;;13.97;100.00;98555.50;4423460;32;20098;-76
2022/10/01 07:42:26;;;;;;;47.67;14.40;;;;;;;14.02;100.00;98551.38;4423355;32;20118;-76
2022/10/01 07:44:54;;;;;;;50.80;13.32;;;;;;;14.05;100.00;98563.41;4423146;32;20246;-76
2022/10/01 07:47:21;;;;;;;36.08;14.02;;;;;;;13.92;100.00;98563.88;4423553;32;20141;-76
2022/10/01 07:49:48;;;;;;;23.92;13.62;;;;;;;13.87;100.00;98571.47;4423176;32;20094;-76
2022/10/01 07:52:15;;;;;;;151.07;20.52;;;;;;;13.91;100.00;98574.59;4423481;32;20503;-76
2022/10/01 07:54:42;;;;;;;48.15;17.02;;;;;;;13.85;100.00;98568.16;4423239;32;20132;-76
2022/10/01 07:57:09;;;;;;;25.95;15.07;;;;;;;13.89;100.00;98569.47;4423715;32;20123;-76
2022/10/01 07:59:37;;;;;;;23.75;14.77;;;;;;;13.98;100.00;98563.22;4423448;32;20101;-76
2022/10/01 08:02:05;;;;;;;27.27;15.25;;;;;;;14.02;100.00;98567.19;4423376;32;20120;-76
2022/10/01 08:07:17;;;;;;;36.83;16.30;;;;;;;14.09;100.00;98561.25;4423350;32;20105;-75
2022/10/01 08:09:44;;;;;;;45.10;17.35;;;;;;;14.05;100.00;98560.78;4423424;32;20112;-76
2022/10/01 08:12:12;;;;;;;102.90;20.27;;;;;;;14.10;100.00;98560.28;4423218;32;20120;-77
2022/10/01 08:14:39;;;;;;;108.40;19.00;;;;;;;14.26;100.00;98555.00;4423145;32;20093;-76
2022/10/01 08:17:06;;;;;;;38.53;17.25;;;;;;;14.24;100.00;98558.78;4423230;32;20160;-76
2022/10/01 08:19:33;;;;;;;33.60;17.87;;;;;;;14.34;100.00;98565.53;4423376;32;20151;-75
2022/10/01 08:22:00;;;;;;;67.47;19.15;;;;;;;14.40;100.00;98563.22;4423439;32;20173;-76
2022/10/01 08:24:27;;;;;;;35.42;17.83;;;;;;;14.31;100.00;98557.97;4423272;32;20477;-77
2022/10/01 08:26:55;;;;;;;31.23;16.33;;;;;;;14.37;100.00;98545.94;4423125;32;20131;-76
2022/10/01 08:29:22;;;;;;;31.37;17.05;;;;;;;14.42;100.00;98538.34;4423319;32;20081;-77
2022/10/01 08:31:49;;;;;;;35.25;17.87;;;;;;;14.28;100.00;98531.13;4423103;32;20149;-76
2022/10/01 08:34:17;;;;;;;36.47;17.20;;;;;;;14.34;100.00;98533.91;4423183;32;20093;-76
2022/10/01 08:36:44;;;;;;;45.75;19.10;;;;;;;14.24;100.00;98525.34;4423496;32;20123;-76
2022/10/01 08:39:12;;;;;;;102.15;21.60;;;;;;;14.42;100.00;98519.88;4423358;32;20396;-76
2022/10/01 08:41:48;;;;;;;63.45;19.25;;;;;;;14.35;100.00;98522.37;4423026;32;20784;-76
2022/10/01 08:44:26;;;;;;;206.98;24.23;;;;;;;14.38;100.00;98527.31;4423263;32;20147;-76
2022/10/01 08:47:02;;;;;;;217.10;23.48;;;;;;;14.42;100.00;98532.25;4422921;32;20510;-76
2022/10/01 08:49:36;;;;;;;54.00;20.90;;;;;;;14.58;100.00;98513.78;4409603;32;20102;-76
2022/10/01 08:52:24;;;;;;;53.35;23.40;;;;;;;14.66;100.00;98526.94;4423359;32;20447;-76
2022/10/01 08:54:57;;;;;;;56.90;22.85;;;;;;;14.69;100.00;98528.44;4409179;32;20499;-76
2022/10/01 08:57:29;;;;;;;72.30;23.27;;;;;;;14.70;100.00;98530.91;4409331;32;20165;-76
2022/10/01 09:00:00;;;;;;;41.45;20.52;;;;;;;14.73;100.00;98532.34;4409264;32;20100;-75
2022/10/01 09:02:31;;;;;;;35.63;19.02;;;;;;;14.92;100.00;98528.50;4408301;32;20110;-76
2022/10/01 09:05:01;;;;;;;34.45;18.87;;;;;;;15.09;100.00;98526.62;4423049;32;20151;-75
2022/10/01 09:07:31;;;;;;;37.63;20.25;;;;;;;15.38;100.00;98515.44;4422915;32;20120;-76
2022/10/01 09:10:27;;;;;;;35.33;19.52;;;;;;;15.69;100.00;98519.03;4422824;32;20657;-76
2022/10/01 09:13:18;;;;;;;34.10;19.27;;;;;;;15.74;100.00;98521.94;4422876;32;20131;-76
2022/10/01 09:15:51;;;;;;;30.92;16.58;;;;;;;16.14;100.00;98523.47;4422649;32;20105;-76
2022/10/01 09:18:34;;;;;;;29.37;17.75;;;;;;;16.48;100.00;98522.16;4423339;32;20108;-76
2022/10/01 09:21:16;;;;;;;28.38;14.75;;;;;;;16.78;100.00;98519.53;4422780;32;20420;-76
2022/10/01 09:24:02;;;;;;;30.02;17.55;;;;;;;17.02;100.00;98521.09;4422944;32;20485;-76
2022/10/01 09:26:30;;;;;;;26.95;14.50;;;;;;;16.82;100.00;98520.81;4422552;32;20097;-77
2022/10/01 09:29:00;;;;;;;18.35;11.80;;;;;;;17.44;100.00;98513.44;4422813;32;20098;-76
2022/10/01 09:31:40;;;;;;;22.05;14.15;;;;;;;17.79;100.00;98515.37;4408757;32;20570;-77
2022/10/01 09:34:15;;;;;;;21.73;14.05;;;;;;;17.72;100.00;98505.53;4409462;32;20090;-76
2022/10/01 09:37:20;;;;;;;23.05;14.18;;;;;;;17.86;100.00;98513.59;4408787;32;20105;-76
2022/10/01 09:40:13;;;;;;;;;;;;;;;18.46;100.00;98513.28;4423006;32;20120;-76
2022/10/01 09:42:41;;;;;;;20.48;13.30;;;;;;;18.70;100.00;98517.28;4374632;32;20002;-76
2022/10/01 09:45:13;;;;;;;18.55;13.77;;;;;;;18.57;100.00;98516.19;4374559;32;20130;-76
2022/10/01 09:47:43;;;;;;;19.75;12.63;;;;;;;18.72;100.00;98515.28;4374773;32;20165;-76
2022/10/01 09:50:17;;;;;;;17.90;12.63;;;;;;;18.85;100.00;98518.03;4362282;32;20166;-76
2022/10/01 09:52:47;;;;;;;19.17;13.60;;;;;;;18.86;100.00;98518.84;4362252;32;20116;-76
2022/10/01 09:55:17;;;;;;;17.85;12.77;;;;;;;18.87;100.00;98513.34;4362455;32;20174;-76
2022/10/01 09:57:58;;;;;;;13.80;10.43;;;;;;;18.83;100.00;98504.09;4374635;32;20115;-76
2022/10/01 10:00:26;;;;;;;15.07;10.70;;;;;;;18.72;100.00;98496.69;4374624;32;20137;-76
2022/10/01 10:02:55;;;;;;;14.38;10.68;;;;;;;18.42;100.00;98495.09;4374594;32;20230;-76
2022/10/01 10:05:27;;;;;;;14.90;10.55;;;;;;;18.58;100.00;98493.97;4374578;32;20110;-76
2022/10/01 10:08:04;;;;;;;10.98;9.25;;;;;;;18.79;100.00;98495.72;4372571;32;20152;-76
2022/10/01 10:10:38;;;;;;;17.35;9.68;;;;;;;18.51;100.00;98490.44;4377318;32;20469;-77
2022/10/01 10:13:10;;;;;;;12.05;10.05;;;;;;;18.31;100.00;98492.19;4390529;32;20082;-77
2022/10/01 10:15:42;;;;;;;12.63;9.23;;;;;;;18.44;100.00;98489.63;4391239;32;20769;-77
2022/10/01 10:18:15;;;;;;;10.50;8.27;;;;;;;18.47;100.00;98491.87;4378912;32;20574;-77
2022/10/01 10:20:50;;;;;;;14.98;8.52;;;;;;;18.74;100.00;98492.84;4420466;32;20110;-77
2022/10/01 10:23:27;;;;;;;13.13;8.95;;;;;;;19.33;100.00;98491.47;4422807;32;20094;-77
2022/10/01 10:25:59;;;;;;;13.82;9.43;;;;;;;19.80;100.00;98498.69;4424149;32;20124;-77
2022/10/01 10:28:29;;;;;;;9.80;7.70;;;;;;;19.84;100.00;98484.00;4424318;32;20081;-77
2022/10/01 10:30:56;;;;;;;11.77;8.27;;;;;;;19.99;100.00;98478.47;4423912;32;20085;-77
2022/10/01 10:33:25;;;;;;;11.93;7.90;;;;;;;19.86;100.00;98487.25;4424100;32;20098;-77
2022/10/01 10:36:00;;;;;;;11.60;7.53;;;;;;;19.91;100.00;98481.31;4424080;32;20182;-77
2022/10/01 10:38:31;;;;;;;11.30;7.70;;;;;;;19.92;100.00;98473.12;4410244;32;20127;-77
2022/10/01 10:40:59;;;;;;;11.68;7.97;;;;;;;20.07;100.00;98480.91;4424322;32;20527;-77
2022/10/01 10:43:30;;;;;;;14.20;8.55;;;;;;;19.91;100.00;98471.53;4423857;32;20534;-77
2022/10/01 10:45:57;;;;;;;10.25;7.30;;;;;;;19.75;100.00;98471.91;4410430;32;20110;-76
2022/10/01 10:48:33;;;;;;;9.38;7.37;;;;;;;19.76;100.00;98465.56;4424137;32;20128;-77
2022/10/01 10:51:03;;;;;;;8.68;6.62;;;;;;;19.47;100.00;98460.41;4424074;32;20455;-77
2022/10/01 10:53:45;;;;;;;9.80;6.80;;;;;;;19.53;100.00;98458.81;4423921;32;20157;-77
2022/10/01 10:56:20;;;;;;;9.07;5.97;;;;;;;19.54;100.00;98455.09;4423908;32;20101;-76
2022/10/01 10:58:49;;;;;;;8.52;5.82;;;;;;;19.65;100.00;98451.84;4423932;32;20085;-77
2022/10/01 11:01:36;;;;;;;6.53;4.30;;;;;;;19.26;100.00;98442.81;4423690;32;20094;-77
2022/10/01 11:04:19;;;;;;;6.72;5.00;;;;;;;19.54;100.00;98441.81;4410119;32;20090;-77
2022/10/01 11:06:57;;;;;;;6.80;4.95;;;;;;;19.48;100.00;98442.62;4423899;32;20151;-77
2022/10/01 11:09:28;;;;;;;6.57;5.10;;;;;;;19.47;100.00;98433.84;4423818;32;20240;-77
2022/10/01 11:12:08;;;;;;;8.18;5.07;;;;;;;19.36;100.00;98434.44;4423869;32;20527;-77
2022/10/01 11:14:42;;;;;;;5.62;4.65;;;;;;;19.21;100.00;98421.34;4423797;32;20074;-77
2022/10/01 11:17:22;;;;;;;7.85;4.95;;;;;;;18.91;100.00;98418.19;4423769;32;20201;-77
2022/10/01 11:20:07;;;;;;;7.70;4.57;;;;;;;18.60;100.00;98412.34;4423782;32;20156;-77
2022/10/01 11:22:52;;;;;;;8.90;4.72;;;;;;;18.74;100.00;98413.22;4422236;32;20085;-77
2022/10/01 11:25:24;;;;;;;6.70;4.60;;;;;;;19.00;100.00;98406.41;4423352;32;20121;-77
2022/10/01 11:28:27;;;;;;;6.05;3.35;;;;;;;19.22;100.00;98399.06;4394638;32;20093;-77
2022/10/01 11:31:05;;;;;;;4.53;3.58;;;;;;;19.08;100.00;98392.13;4370653;32;157160;-77
2022/10/01 11:33:32;;;;;;;7.20;3.50;;;;;;;19.35;100.00;98389.47;4388114;32;20125;-77
2022/10/01 11:36:04;;;;;;;6.20;3.80;;;;;;;19.54;100.00;98383.34;4375872;32;20189;-77